Time;durP1;ratioP1;P1;durP2;ratioP2;P2;SDS_P1;SDS_P2;PMS_P1;PMS_P2;Temp;Humidity;BMP_temperature;BMP_pressure;BME280_temperature;BME280_humidity;BME280_pressure;Samples;Min_cycle;Max_cycle;Signal;HPM_P1;HPM_P2
2023/04/30 00:00:53;;;;;;;12.60;7.67;;;;;;;4.41;85.43;102169.13;4907077;29;19921;-79
2023/04/30 00:03:18;;;;;;;;;;;;;;;4.34;85.48;102173.25;4898117;29;20055;-79
2023/04/30 00:05:44;;;;;;;14.98;9.88;;;;;;;4.28;86.35;102169.25;4898438;29;20605;-78
2023/04/30 00:08:10;;;;;;;14.43;9.73;;;;;;;4.26;86.71;102168.53;4904959;29;20047;-78
2023/04/30 00:10:35;;;;;;;16.50;10.40;;;;;;;4.20;87.30;102169.88;4906400;29;20485;-79
2023/04/30 00:13:01;;;;;;;15.32;8.88;;;;;;;4.17;87.08;102177.28;4908734;29;20055;-78
2023/04/30 00:15:26;;;;;;;;;;;;;;;4.10;86.79;102161.78;4907656;29;20384;-78
2023/04/30 00:17:52;;;;;;;15.27;9.30;;;;;;;4.09;87.63;102164.56;4907651;29;19933;-79
2023/04/30 00:20:17;;;;;;;;;;;;;;;4.09;87.40;102165.41;4883991;29;20040;-79
2023/04/30 00:22:42;;;;;;;19.13;12.47;;;;;;;4.15;88.00;102157.91;4907761;29;19935;-78
2023/04/30 00:25:08;;;;;;;;;;;;;;;4.09;87.79;102165.41;4900404;29;20056;-78
2023/04/30 00:27:33;;;;;;;15.10;8.82;;;;;;;4.04;88.03;102167.59;4907652;29;19923;-78
2023/04/30 00:29:58;;;;;;;;;;;;;;;3.97;88.07;102171.72;4880946;29;20044;-79
2023/04/30 00:32:24;;;;;;;14.07;8.50;;;;;;;3.92;87.28;102173.88;4898919;29;19953;-78
2023/04/30 00:34:49;;;;;;;14.65;8.38;;;;;;;3.87;87.64;102170.75;4899518;29;20051;-78
2023/04/30 00:37:15;;;;;;;20.85;12.43;;;;;;;3.83;87.98;102174.63;4908560;29;20044;-77
2023/04/30 00:39:40;;;;;;;17.07;11.20;;;;;;;3.77;87.29;102171.44;4909932;29;20052;-78
2023/04/30 00:42:06;;;;;;;16.42;11.77;;;;;;;3.73;87.35;102185.97;4900597;29;20430;-78
2023/04/30 00:44:31;;;;;;;20.13;12.82;;;;;;;3.70;87.26;102180.91;4911227;29;20040;-78
2023/04/30 00:46:56;;;;;;;18.52;12.13;;;;;;;3.68;88.03;102177.50;4912151;29;20048;-77
2023/04/30 00:49:22;;;;;;;17.20;10.77;;;;;;;3.61;87.85;102171.81;4890395;29;20036;-78
2023/04/30 00:51:47;;;;;;;17.42;11.13;;;;;;;3.59;87.87;102180.88;4910810;29;20771;-78
2023/04/30 00:54:12;;;;;;;21.05;13.23;;;;;;;3.58;88.37;102176.50;4897514;29;20054;-78
2023/04/30 00:56:38;;;;;;;15.50;8.70;;;;;;;3.55;88.38;102182.06;4880634;29;21538;-77
2023/04/30 00:59:06;;;;;;;16.80;10.67;;;;;;;3.54;88.03;102175.03;4899329;29;20281;-78
2023/04/30 01:01:31;;;;;;;18.15;11.27;;;;;;;3.49;87.82;102178.91;4912997;29;20764;-78
2023/04/30 01:03:59;;;;;;;16.17;10.40;;;;;;;3.41;87.83;102181.31;4867281;29;20063;-78
2023/04/30 01:06:25;;;;;;;15.18;9.60;;;;;;;3.37;87.82;102179.84;4904717;29;20043;-78
2023/04/30 01:08:56;;;;;;;14.30;9.80;;;;;;;3.34;88.11;102186.25;4896206;29;20039;-78
2023/04/30 01:11:39;;;;;;;17.20;10.63;;;;;;;3.31;88.02;102175.00;4910120;29;20055;-78
2023/04/30 01:14:24;;;;;;;14.52;9.27;;;;;;;3.28;88.18;102177.88;4909495;29;20052;-78
2023/04/30 01:17:01;;;;;;;21.35;13.75;;;;;;;3.26;88.27;102174.50;4894313;29;20048;-78
2023/04/30 01:19:29;;;;;;;17.33;10.45;;;;;;;3.22;88.66;102178.34;4909490;29;21162;-78
2023/04/30 01:21:57;;;;;;;17.00;10.80;;;;;;;3.16;88.35;102177.84;4909750;29;20095;-78
2023/04/30 01:24:48;;;;;;;12.15;8.98;;;;;;;3.17;88.35;102176.03;4878981;29;20040;-78
2023/04/30 01:27:48;;;;;;;20.92;13.32;;;;;;;3.22;88.41;102170.34;4878818;29;21624;-78
2023/04/30 01:30:13;;;;;;;18.58;11.73;;;;;;;3.18;89.10;102170.59;4894711;29;20503;-78
2023/04/30 01:32:38;;;;;;;24.73;13.23;;;;;;;3.15;88.65;102165.50;4879163;29;20036;-79
2023/04/30 01:35:04;;;;;;;16.13;10.83;;;;;;;3.08;88.75;102171.41;4909624;29;20276;-78
2023/04/30 01:37:40;;;;;;;23.58;14.57;;;;;;;3.02;88.82;102170.91;4909666;29;20044;-77
2023/04/30 01:40:28;;;;;;;18.50;11.10;;;;;;;2.99;88.67;102171.13;4895022;29;20071;-78
2023/04/30 01:43:03;;;;;;;26.50;15.40;;;;;;;3.00;89.10;102172.81;4888365;29;20044;-78
2023/04/30 01:45:43;;;;;;;31.43;18.20;;;;;;;3.06;89.51;102176.84;4876021;29;20048;-78
2023/04/30 01:48:26;;;;;;;20.52;13.65;;;;;;;3.01;89.48;102184.28;4907514;29;20044;-78
2023/04/30 01:51:04;;;;;;;23.45;13.32;;;;;;;2.92;89.67;102180.50;4882038;29;20048;-77
2023/04/30 01:53:37;;;;;;;21.33;13.63;;;;;;;2.87;89.47;102183.53;4892083;29;20054;-78
2023/04/30 01:56:04;;;;;;;22.27;14.00;;;;;;;2.85;89.25;102179.28;4908463;29;20052;-78
2023/04/30 01:58:29;;;;;;;23.50;14.55;;;;;;;2.86;88.93;102192.47;4909115;29;20059;-78
2023/04/30 02:00:56;;;;;;;20.80;13.43;;;;;;;2.94;89.53;102196.38;4875568;29;20047;-78
2023/04/30 02:03:21;;;;;;;22.17;13.50;;;;;;;2.91;89.71;102186.81;4910687;29;20047;-79
2023/04/30 02:05:47;;;;;;;22.33;15.10;;;;;;;2.89;89.65;102191.41;4909542;29;20434;-78
2023/04/30 02:08:12;;;;;;;25.58;14.35;;;;;;;2.86;89.29;102189.78;4910159;29;20295;-79
2023/04/30 02:10:38;;;;;;;21.23;13.00;;;;;;;2.85;89.32;102190.75;4909210;29;20044;-79
2023/04/30 02:13:03;;;;;;;20.05;13.23;;;;;;;2.81;89.67;102191.97;4899287;29;20642;-79
2023/04/30 02:15:28;;;;;;;20.02;11.15;;;;;;;2.77;89.25;102201.13;4899282;29;20051;-79
2023/04/30 02:17:55;;;;;;;18.50;10.80;;;;;;;2.74;89.17;102204.00;4884422;29;20496;-78
2023/04/30 02:20:20;;;;;;;19.35;12.13;;;;;;;2.75;89.33;102205.69;4898376;29;20052;-79
2023/04/30 02:22:46;;;;;;;26.70;15.27;;;;;;;2.79;89.81;102207.19;4907616;29;20496;-79
2023/04/30 02:25:11;;;;;;;28.87;17.93;;;;;;;2.84;89.70;102204.19;4909783;29;20265;-78
2023/04/30 02:27:37;;;;;;;28.17;15.60;;;;;;;2.84;89.86;102202.34;4907853;29;20629;-78
2023/04/30 02:30:03;;;;;;;36.60;20.25;;;;;;;2.91;90.20;102215.22;4915727;29;20279;-77
2023/04/30 02:32:29;;;;;;;;;;;;;;;2.96;90.60;102210.41;4913946;29;20493;-77
2023/04/30 02:34:54;;;;;;;26.05;16.48;;;;;;;2.87;90.39;102199.47;4898789;29;19934;-78
2023/04/30 02:37:20;;;;;;;28.23;16.30;;;;;;;2.76;90.41;102202.09;4891479;29;20048;-77
2023/04/30 02:39:45;;;;;;;21.48;13.38;;;;;;;2.66;90.28;102206.34;4909334;29;20036;-78
2023/04/30 02:42:11;;;;;;;20.65;12.93;;;;;;;2.57;89.90;102208.72;4898061;29;20048;-78
2023/04/30 02:44:36;;;;;;;20.98;13.13;;;;;;;2.50;89.78;102204.81;4907178;29;20059;-78
2023/04/30 02:47:02;;;;;;;21.42;14.40;;;;;;;2.48;89.81;102201.41;4899992;29;20044;-78
2023/04/30 02:49:28;;;;;;;21.17;13.07;;;;;;;2.44;89.76;102197.28;4890260;29;20050;-78
2023/04/30 02:51:53;;;;;;;;;;;;;;;2.45;89.95;102199.00;4909667;29;20036;-78
2023/04/30 02:54:18;;;;;;;26.23;15.10;;;;;;;2.39;89.92;102199.41;4892132;29;19934;-78
2023/04/30 02:56:44;;;;;;;22.67;13.83;;;;;;;2.36;90.08;102197.84;4908221;29;20052;-78
2023/04/30 02:59:10;;;;;;;25.27;15.18;;;;;;;2.41;90.33;102197.50;4890755;29;20048;-78
2023/04/30 03:01:35;;;;;;;23.52;15.77;;;;;;;2.40;89.94;102190.50;4891615;29;20036;-78
2023/04/30 03:04:02;;;;;;;29.05;17.15;;;;;;;2.46;90.12;102191.84;4896675;29;20048;-78
2023/04/30 03:06:28;;;;;;;35.75;20.30;;;;;;;2.54;90.39;102193.00;4908393;29;20102;-78
2023/04/30 03:08:55;;;;;;;40.35;20.42;;;;;;;2.46;90.83;102178.56;4899349;29;20040;-79
2023/04/30 03:11:20;;;;;;;31.65;17.20;;;;;;;2.49;90.59;102187.16;4901287;29;20044;-78
2023/04/30 03:13:50;;;;;;;32.80;18.55;;;;;;;2.49;90.65;102189.81;4909349;29;20091;-79
2023/04/30 03:16:15;;;;;;;34.92;20.38;;;;;;;2.45;90.60;102177.72;4910827;29;20058;-78
2023/04/30 03:18:40;;;;;;;32.85;17.00;;;;;;;2.45;90.58;102183.03;4898494;29;20041;-78
2023/04/30 03:21:06;;;;;;;38.07;19.90;;;;;;;2.49;90.45;102189.81;4908964;29;20036;-78
2023/04/30 03:23:37;;;;;;;46.37;23.07;;;;;;;2.56;90.81;102184.91;4881561;29;20293;-79
2023/04/30 03:26:02;;;;;;;50.83;24.55;;;;;;;2.60;91.09;102185.56;4887556;29;20273;-79
2023/04/30 03:28:27;;;;;;;52.55;25.13;;;;;;;2.62;91.25;102180.97;4887168;29;20056;-79
2023/04/30 03:30:53;;;;;;;46.13;22.70;;;;;;;2.63;91.08;102182.69;4889787;29;20048;-79
2023/04/30 03:33:18;;;;;;;35.93;20.20;;;;;;;2.57;91.10;102175.97;4877729;29;20296;-79
2023/04/30 03:35:44;;;;;;;33.53;16.67;;;;;;;2.47;91.28;102181.09;4886912;29;20382;-79
2023/04/30 03:38:09;;;;;;;26.80;17.03;;;;;;;2.45;91.07;102185.72;4872657;29;20056;-78
2023/04/30 03:40:35;;;;;;;23.27;12.73;;;;;;;2.37;90.93;102185.41;4888235;29;20285;-79
2023/04/30 03:43:01;;;;;;;31.00;17.38;;;;;;;2.33;90.86;102191.88;4888287;29;20067;-78
2023/04/30 03:45:26;;;;;;;33.10;17.83;;;;;;;2.29;90.60;102190.44;4889751;29;20392;-78
2023/04/30 03:47:51;;;;;;;24.83;14.83;;;;;;;2.29;90.85;102190.44;4868064;29;20445;-78
2023/04/30 03:50:17;;;;;;;36.97;19.03;;;;;;;2.26;90.64;102189.69;4881696;29;20351;-77
2023/04/30 03:52:42;;;;;;;37.00;17.52;;;;;;;2.24;91.10;102188.94;4889934;29;20075;-77
2023/04/30 03:55:09;;;;;;;38.50;18.30;;;;;;;2.20;90.80;102184.78;4890231;29;20041;-78
2023/04/30 03:57:34;;;;;;;28.50;14.38;;;;;;;2.14;90.72;102179.06;4880284;29;20384;-77
2023/04/30 04:00:00;;;;;;;28.95;15.38;;;;;;;2.11;90.85;102180.97;4873775;29;20123;-79
2023/04/30 04:02:25;;;;;;;22.53;12.73;;;;;;;2.09;90.74;102180.22;4888731;29;20063;-77
2023/04/30 04:04:50;;;;;;;24.42;14.25;;;;;;;2.10;91.06;102181.09;4857286;29;20058;-78
2023/04/30 04:07:16;;;;;;;29.48;16.55;;;;;;;2.16;90.87;102185.97;4858037;29;20044;-79
2023/04/30 04:09:43;;;;;;;56.92;23.90;;;;;;;2.25;90.90;102193.28;4880383;29;20416;-78
2023/04/30 04:12:09;;;;;;;43.20;20.90;;;;;;;2.29;90.90;102185.09;4911759;29;20134;-78
2023/04/30 04:14:38;;;;;;;42.80;21.00;;;;;;;2.39;91.29;102183.47;4896407;29;20080;-77
2023/04/30 04:17:04;;;;;;;58.03;24.30;;;;;;;2.47;91.20;102197.03;4881660;29;20766;-79
2023/04/30 04:19:30;;;;;;;53.33;23.88;;;;;;;2.50;91.41;102191.50;4879051;29;20108;-78
2023/04/30 04:21:56;;;;;;;66.47;27.27;;;;;;;2.56;91.59;102190.22;4892545;29;20051;-78
2023/04/30 04:24:23;;;;;;;50.47;21.80;;;;;;;2.62;91.60;102189.78;4892881;29;20131;-78
2023/04/30 04:26:49;;;;;;;46.00;21.20;;;;;;;2.64;91.87;102181.72;4880390;29;20579;-79
2023/04/30 04:29:14;;;;;;;44.80;20.67;;;;;;;2.66;91.61;102179.75;4891065;29;20040;-79
2023/04/30 04:31:41;;;;;;;46.43;23.23;;;;;;;2.71;91.98;102174.97;4882537;29;20313;-78
2023/04/30 04:34:07;;;;;;;48.45;22.05;;;;;;;2.78;91.77;102186.00;4881149;29;20069;-79
2023/04/30 04:36:33;;;;;;;53.67;23.85;;;;;;;2.83;91.87;102183.88;4890602;29;20048;-78
2023/04/30 04:39:01;;;;;;;49.40;21.58;;;;;;;2.88;91.61;102179.91;4891614;29;20059;-79
2023/04/30 04:41:27;;;;;;;47.63;22.75;;;;;;;2.94;91.48;102183.91;4891336;29;20071;-78
2023/04/30 04:43:53;;;;;;;;;;;;;;;3.04;91.85;102194.72;4890839;29;20079;-78
2023/04/30 04:46:19;;;;;;;43.07;21.83;;;;;;;3.13;91.88;102187.84;4889541;29;19974;-79
2023/04/30 04:48:45;;;;;;;42.05;21.15;;;;;;;3.35;91.72;102189.78;4883498;29;20049;-78
2023/04/30 04:51:11;;;;;;;;;;;;;;;3.45;91.30;102192.56;4891708;29;20044;-78
2023/04/30 04:53:36;;;;;;;38.67;21.70;;;;;;;3.49;91.25;102192.22;4881596;29;19994;-78
2023/04/30 04:56:02;;;;;;;35.65;20.70;;;;;;;3.57;91.12;102196.09;4893540;29;20052;-79
2023/04/30 04:58:27;;;;;;;40.10;21.58;;;;;;;3.63;91.16;102199.13;4886152;29;20057;-78
2023/04/30 05:00:53;;;;;;;;;;;;;;;3.74;91.00;102181.50;4879292;29;20049;-77
2023/04/30 05:03:19;;;;;;;43.13;23.13;;;;;;;4.10;90.85;102193.75;4887479;29;19930;-80
2023/04/30 05:05:50;;;;;;;32.00;19.55;;;;;;;4.60;90.89;102189.81;4879525;29;20049;-81
2023/04/30 05:08:16;;;;;;;27.60;18.35;;;;;;;4.82;nan;102193.41;4883286;29;20529;-79
2023/04/30 05:10:41;;;;;;;;;;;;;;;4.92;87.94;102198.84;4886328;29;20048;-80
2023/04/30 05:13:06;;;;;;;31.93;17.30;;;;;;;5.16;85.79;102207.50;4895128;29;20355;-79
2023/04/30 05:15:31;;;;;;;;;;;;;;;5.55;83.96;102198.91;4892813;29;20116;-80
2023/04/30 05:17:57;;;;;;;25.17;16.33;;;;;;;5.88;83.44;102205.03;4889000;29;19923;-80
2023/04/30 05:20:22;;;;;;;;;;;;;;;6.09;81.90;102206.84;4894938;29;20045;-79
2023/04/30 05:22:47;;;;;;;19.13;13.67;;;;;;;6.09;80.86;102209.53;4904533;29;20304;-80
2023/04/30 05:25:13;;;;;;;21.15;14.80;;;;;;;5.86;80.04;102209.66;4909437;29;20300;-80
2023/04/30 05:27:38;;;;;;;;;;;;;;;5.69;80.77;102212.91;4910510;29;20625;-80
2023/04/30 05:30:04;;;;;;;22.50;14.33;;;;;;;5.55;82.12;102222.97;4912052;29;19924;-81
2023/04/30 05:32:29;;;;;;;;;;;;;;;5.44;82.15;102218.53;4908386;29;20050;-80
2023/04/30 05:34:55;;;;;;;21.02;14.20;;;;;;;5.49;83.04;102222.63;4889456;29;20320;-80
2023/04/30 05:37:21;;;;;;;24.52;14.55;;;;;;;5.57;83.50;102215.66;4905575;29;20098;-80
2023/04/30 05:39:47;;;;;;;20.88;13.70;;;;;;;5.94;81.48;102227.69;4905301;29;20099;-80
2023/04/30 05:42:12;;;;;;;;;;;;;;;6.35;79.57;102228.63;4908103;29;20119;-80
2023/04/30 05:44:37;;;;;;;18.83;12.10;;;;;;;6.95;78.30;102230.50;4899609;29;19931;-79
2023/04/30 05:47:03;;;;;;;;;;;;;;;7.30;76.52;102230.09;4906497;29;20063;-80
2023/04/30 05:49:28;;;;;;;15.00;10.63;;;;;;;7.82;74.54;102227.06;4906710;29;19934;-80
2023/04/30 05:51:53;;;;;;;;;;;;;;;8.13;73.12;102229.50;4884789;29;20369;-79
2023/04/30 05:54:19;;;;;;;15.80;10.40;;;;;;;8.27;71.74;102230.84;4908980;29;19923;-78
2023/04/30 05:56:44;;;;;;;;;;;;;;;8.40;71.48;102233.22;4910451;29;20051;-78
2023/04/30 05:59:09;;;;;;;15.07;10.70;;;;;;;8.48;71.08;102233.34;4910226;29;19938;-79
2023/04/30 06:01:35;;;;;;;15.02;11.13;;;;;;;8.56;70.82;102230.75;4903660;29;20040;-80
2023/04/30 06:04:00;;;;;;;;;;;;;;;9.00;69.92;102227.38;4918388;29;20066;-80
2023/04/30 06:06:26;;;;;;;12.33;9.77;;;;;;;9.90;67.62;102230.94;4897781;29;19927;-80
2023/04/30 06:08:52;;;;;;;12.13;8.80;;;;;;;10.86;64.58;102229.06;4886020;29;20658;-81
2023/04/30 06:11:17;;;;;;;11.73;8.65;;;;;;;11.67;60.79;102218.47;4907407;29;20048;-81
2023/04/30 06:13:43;;;;;;;12.98;9.07;;;;;;;12.51;57.97;102217.25;4910371;29;20080;-80
2023/04/30 06:16:08;;;;;;;10.27;8.60;;;;;;;12.95;56.61;102223.94;4888367;29;20048;-80
2023/04/30 06:18:34;;;;;;;11.55;8.75;;;;;;;13.80;54.83;102231.03;4906285;29;20040;-80
2023/04/30 06:20:59;;;;;;;11.80;8.48;;;;;;;14.62;51.79;102227.53;4901880;29;20052;-81
2023/04/30 06:23:24;;;;;;;11.15;8.02;;;;;;;14.91;50.93;102226.66;4893125;29;20579;-81
2023/04/30 06:25:50;;;;;;;10.15;8.02;;;;;;;14.84;51.60;102231.16;4905738;29;20052;-81
2023/04/30 06:28:15;;;;;;;11.93;8.52;;;;;;;15.68;49.02;102231.53;4904901;29;20040;-81
2023/04/30 06:30:42;;;;;;;12.55;8.75;;;;;;;15.83;48.97;102242.28;4895244;29;20056;-81
2023/04/30 06:33:08;;;;;;;9.57;8.32;;;;;;;15.75;48.91;102241.41;4891423;29;20059;-81
2023/04/30 06:35:33;;;;;;;10.18;7.80;;;;;;;15.72;47.75;102235.50;4884652;29;20032;-80
2023/04/30 06:37:59;;;;;;;10.82;7.90;;;;;;;16.07;47.15;102235.56;4903591;29;20048;-81
2023/04/30 06:40:24;;;;;;;8.75;7.65;;;;;;;16.08;47.07;102231.81;4892178;29;20468;-80
2023/04/30 06:42:50;;;;;;;10.50;7.35;;;;;;;16.35;47.60;102223.81;4903931;29;20044;-83
2023/04/30 06:45:15;;;;;;;9.18;7.70;;;;;;;16.97;45.65;102232.00;4901613;29;20445;-81
2023/04/30 06:47:44;;;;;;;10.00;7.68;;;;;;;17.00;45.05;102239.75;4884285;29;20809;-82
2023/04/30 06:50:09;;;;;;;7.65;6.85;;;;;;;17.49;44.89;102242.31;4892962;29;20143;-83
2023/04/30 06:52:53;;;;;;;8.13;7.20;;;;;;;17.61;44.29;102235.22;4897278;29;20064;-82
2023/04/30 06:55:55;;;;;;;8.50;6.90;;;;;;;17.07;43.94;102240.63;4908734;29;20050;-81
2023/04/30 06:58:21;;;;;;;8.43;6.50;;;;;;;17.33;44.56;102235.41;4887538;29;20059;-80
2023/04/30 07:00:46;;;;;;;8.68;7.00;;;;;;;17.13;44.53;102237.03;4893506;29;20036;-80
2023/04/30 07:03:12;;;;;;;7.93;6.57;;;;;;;17.70;43.53;102236.66;4906443;29;20065;-80
2023/04/30 07:05:38;;;;;;;8.40;6.90;;;;;;;17.94;42.43;102238.91;4896650;29;20131;-83
2023/04/30 07:08:03;;;;;;;9.15;7.22;;;;;;;18.14;43.15;102238.94;4896448;29;20054;-77
2023/04/30 07:10:32;;;;;;;10.30;6.57;;;;;;;17.92;42.90;102233.69;4883228;29;20171;-82
2023/04/30 07:12:58;;;;;;;8.20;6.70;;;;;;;18.66;41.25;102235.38;4886111;29;20106;-82
2023/04/30 07:15:23;;;;;;;8.35;6.95;;;;;;;18.60;40.77;102237.91;4903179;29;20047;-82
2023/04/30 07:17:48;;;;;;;7.32;6.18;;;;;;;18.82;41.15;102242.19;4904819;29;20506;-82
2023/04/30 07:20:14;;;;;;;7.57;6.65;;;;;;;17.70;42.87;102241.28;4904817;29;20044;-83
2023/04/30 07:22:43;;;;;;;7.20;6.22;;;;;;;17.84;42.26;102245.66;4905383;29;20479;-83
2023/04/30 07:25:08;;;;;;;8.80;6.82;;;;;;;18.49;41.72;102241.31;4905185;29;20130;-83
2023/04/30 07:27:34;;;;;;;8.10;6.47;;;;;;;18.57;41.23;102237.50;4900902;29;20139;-82
2023/04/30 07:29:59;;;;;;;9.75;6.70;;;;;;;18.62;41.04;102237.72;4903589;29;20523;-82
2023/04/30 07:32:26;;;;;;;7.55;6.50;;;;;;;19.44;40.14;102247.06;4905838;29;20075;-84
2023/04/30 07:34:52;;;;;;;7.93;6.10;;;;;;;19.54;39.19;102247.41;4907066;29;20083;-85
2023/04/30 07:37:17;;;;;;;7.32;6.32;;;;;;;18.87;39.72;102247.84;4889846;29;20130;-84
2023/04/30 07:39:43;;;;;;;6.60;5.90;;;;;;;19.33;39.68;102248.63;4898571;29;20477;-82
2023/04/30 07:42:15;;;;;;;8.10;6.35;;;;;;;19.47;38.75;102241.19;4907724;29;20040;-82
2023/04/30 07:44:41;;;;;;;8.93;6.20;;;;;;;18.66;40.25;102249.84;4895634;29;20458;-83
2023/04/30 07:47:06;;;;;;;9.07;6.20;;;;;;;18.75;40.90;102243.09;4911194;29;20044;-84
2023/04/30 07:49:32;;;;;;;8.82;6.63;;;;;;;18.60;40.68;102253.44;4907589;29;20044;-83
2023/04/30 07:51:58;;;;;;;6.45;5.85;;;;;;;18.56;41.01;102242.13;4904839;29;20103;-83
2023/04/30 07:54:23;;;;;;;8.48;6.15;;;;;;;18.70;40.48;102247.53;4905004;29;20073;-83
2023/04/30 07:56:49;;;;;;;7.30;6.00;;;;;;;20.43;37.52;102244.41;4905841;29;20033;-83
2023/04/30 07:59:14;;;;;;;8.18;6.05;;;;;;;20.20;37.94;102245.13;4905726;29;20374;-83
2023/04/30 08:01:42;;;;;;;8.82;6.30;;;;;;;21.14;36.49;102254.84;4888200;29;20051;-83
2023/04/30 08:04:08;;;;;;;9.73;7.10;;;;;;;19.55;38.80;102249.06;4901543;29;20044;-84
2023/04/30 08:06:33;;;;;;;8.30;6.60;;;;;;;19.89;38.88;102251.53;4906228;29;20107;-85
2023/04/30 08:08:59;;;;;;;9.05;6.07;;;;;;;21.05;36.61;102251.59;4915039;29;20324;-84
2023/04/30 08:11:24;;;;;;;7.30;5.93;;;;;;;21.50;35.48;102257.66;4915837;29;20047;-85
2023/04/30 08:13:50;;;;;;;8.38;6.32;;;;;;;21.64;35.07;102258.28;4905583;29;20044;-85
2023/04/30 08:16:15;;;;;;;7.03;5.93;;;;;;;21.30;35.22;102256.09;4907282;29;20044;-84
2023/04/30 08:18:43;;;;;;;7.00;6.30;;;;;;;21.07;35.69;102254.13;4894848;29;20043;-85
2023/04/30 08:21:12;;;;;;;7.88;5.63;;;;;;;21.76;35.54;102253.66;4904887;29;20033;-82
2023/04/30 08:23:37;;;;;;;8.95;6.32;;;;;;;21.92;34.76;102254.00;4904512;29;20226;-84
2023/04/30 08:26:03;;;;;;;8.00;5.78;;;;;;;21.63;35.12;102251.13;4910150;29;20240;-84
2023/04/30 08:28:28;;;;;;;8.52;5.90;;;;;;;21.45;35.53;102257.53;4907968;29;20115;-84
2023/04/30 08:30:54;;;;;;;7.82;6.38;;;;;;;20.85;37.11;102245.56;4902937;29;20040;-83
2023/04/30 08:33:19;;;;;;;7.05;5.38;;;;;;;22.22;33.90;102245.63;4905529;29;20143;-83
2023/04/30 08:35:45;;;;;;;8.07;5.75;;;;;;;21.99;34.92;102251.13;4907264;29;20044;-85
2023/04/30 08:38:10;;;;;;;7.43;5.95;;;;;;;22.86;33.24;102250.19;4909422;29;20040;-84
2023/04/30 08:40:35;;;;;;;6.47;5.50;;;;;;;23.11;32.39;102243.53;4905030;29;20052;-83
2023/04/30 08:43:05;;;;;;;8.73;5.45;;;;;;;23.38;31.75;102242.06;4867180;29;20048;-85
2023/04/30 08:45:34;;;;;;;6.28;5.20;;;;;;;23.91;31.15;102248.06;4906323;29;20543;-84
2023/04/30 08:48:00;;;;;;;6.60;5.07;;;;;;;23.50;31.53;102247.44;4907552;29;20036;-85
2023/04/30 08:50:26;;;;;;;6.65;5.35;;;;;;;20.30;35.00;102255.50;4907672;29;20068;-85
2023/04/30 08:52:51;;;;;;;6.72;5.30;;;;;;;22.05;33.38;102252.94;4897840;29;20080;-84
2023/04/30 08:55:17;;;;;;;6.40;5.32;;;;;;;22.72;31.79;102251.59;4884243;29;20044;-85
2023/04/30 08:57:42;;;;;;;8.15;5.55;;;;;;;23.28;30.88;102261.97;4906670;29;20044;-85
2023/04/30 09:00:08;;;;;;;8.50;6.07;;;;;;;23.18;31.11;102259.84;4891347;29;20134;-85
2023/04/30 09:02:34;;;;;;;5.78;5.07;;;;;;;22.37;32.27;102260.75;4908786;29;20048;-85
2023/04/30 09:04:59;;;;;;;6.53;5.28;;;;;;;22.26;31.70;102255.00;4909860;29;20079;-85
2023/04/30 09:07:27;;;;;;;6.80;4.97;;;;;;;21.85;32.65;102253.28;4909123;29;20405;-85
2023/04/30 09:09:53;;;;;;;5.75;4.93;;;;;;;22.63;31.93;102250.28;4914763;29;20456;-85
2023/04/30 09:12:18;;;;;;;7.90;5.20;;;;;;;22.41;30.71;102259.19;4909712;29;20044;-84
2023/04/30 09:15:03;;;;;;;5.22;4.65;;;;;;;22.15;32.48;102250.41;4911332;29;20048;-84
2023/04/30 09:17:29;;;;;;;7.43;4.68;;;;;;;22.29;32.09;102247.38;4908601;29;20048;-84
2023/04/30 09:19:55;;;;;;;7.65;5.10;;;;;;;21.70;33.33;102251.03;4912179;29;20070;-85
2023/04/30 09:22:21;;;;;;;8.27;5.20;;;;;;;23.21;31.25;102239.28;4892442;29;20223;-85
2023/04/30 09:24:48;;;;;;;5.30;4.68;;;;;;;23.54;31.39;102245.88;4914416;29;20542;-84
2023/04/30 09:27:20;;;;;;;5.53;4.60;;;;;;;22.55;32.23;102241.38;4912287;29;20040;-85
2023/04/30 09:29:45;;;;;;;6.70;4.68;;;;;;;22.37;32.13;102233.31;4908692;29;20044;-85
2023/04/30 09:32:11;;;;;;;6.25;4.55;;;;;;;22.16;33.33;102232.88;4926157;29;20075;-84
2023/04/30 09:34:36;;;;;;;4.65;4.25;;;;;;;23.22;31.83;102239.03;4923071;29;20055;-84
2023/04/30 09:37:03;;;;;;;5.32;4.47;;;;;;;24.25;30.27;102233.44;4918434;29;20067;-84
2023/04/30 09:39:28;;;;;;;7.10;5.30;;;;;;;23.83;30.29;102237.53;4901344;29;20081;-85
2023/04/30 09:42:09;;;;;;;5.82;4.47;;;;;;;24.19;29.86;102235.25;4879667;29;20054;-85
2023/04/30 09:44:37;;;;;;;5.90;5.05;;;;;;;23.56;31.22;102224.47;4895510;29;20081;-84
2023/04/30 09:47:03;;;;;;;6.13;4.40;;;;;;;24.38;29.84;102227.53;4909555;29;20131;-84
2023/04/30 09:49:28;;;;;;;5.97;4.95;;;;;;;23.96;29.64;102223.41;4907664;29;20047;-83
2023/04/30 09:51:57;;;;;;;6.72;4.15;;;;;;;23.97;30.99;102224.25;4908806;29;20048;-83
2023/04/30 09:54:28;;;;;;;7.00;3.95;;;;;;;23.67;30.54;102222.72;4908766;29;20036;-85
2023/04/30 09:56:55;;;;;;;4.75;4.25;;;;;;;23.92;30.06;102220.31;4910322;29;20131;-85
2023/04/30 09:59:20;;;;;;;6.72;4.30;;;;;;;23.61;31.37;102222.63;4910312;29;20392;-82
2023/04/30 10:01:46;;;;;;;6.95;4.57;;;;;;;23.19;31.93;102211.22;4908793;29;20036;-86
2023/04/30 10:04:11;;;;;;;6.60;4.15;;;;;;;23.27;31.49;102219.91;4889163;29;20040;-85
2023/04/30 10:06:37;;;;;;;5.63;4.38;;;;;;;22.86;31.53;102220.00;4877129;29;20038;-86
2023/04/30 10:09:02;;;;;;;4.90;4.05;;;;;;;22.79;31.70;102210.25;4874697;29;20047;-86
2023/04/30 10:11:28;;;;;;;6.30;4.13;;;;;;;21.53;33.31;102215.25;4870788;29;20052;-86
2023/04/30 10:14:06;;;;;;;6.07;4.00;;;;;;;22.25;32.70;102214.13;4907054;29;20502;-87
2023/04/30 10:16:56;;;;;;;5.43;4.10;;;;;;;22.94;31.23;102198.72;4905764;29;20063;-87
2023/04/30 10:19:22;;;;;;;4.95;3.80;;;;;;;23.74;30.05;102201.34;4891497;29;20058;-85
2023/04/30 10:21:48;;;;;;;5.00;3.33;;;;;;;23.46;30.65;102193.00;4909694;29;20054;-86
2023/04/30 10:24:13;;;;;;;5.75;3.75;;;;;;;24.16;29.13;102187.09;4871063;29;20049;-85
2023/04/30 10:26:39;;;;;;;4.82;3.22;;;;;;;24.96;27.86;102202.28;4907053;29;20040;-85
2023/04/30 10:29:05;;;;;;;4.30;3.90;;;;;;;22.96;30.06;102182.81;4879987;29;20041;-86
2023/04/30 10:31:30;;;;;;;4.50;4.00;;;;;;;22.75;30.55;102185.22;4895224;29;20048;-87
2023/04/30 10:34:03;;;;;;;7.38;3.60;;;;;;;23.52;30.36;102176.56;4892684;29;20051;-85
2023/04/30 10:36:40;;;;;;;4.60;3.60;;;;;;;22.68;31.26;102182.59;4898106;29;20051;-85
2023/04/30 10:39:05;;;;;;;5.70;3.50;;;;;;;22.65;32.01;102180.38;4891929;29;20044;-85
2023/04/30 10:41:31;;;;;;;5.25;3.47;;;;;;;23.41;30.68;102187.44;4891371;29;20032;-86
2023/04/30 10:43:58;;;;;;;8.35;4.90;;;;;;;23.42;30.70;102180.00;4904952;29;20047;-85
2023/04/30 10:46:24;;;;;;;4.88;3.03;;;;;;;24.51;28.77;102171.25;4907037;29;20081;-85
2023/04/30 10:48:53;;;;;;;7.88;4.00;;;;;;;25.04;28.09;102178.94;4914945;29;20040;-84
2023/04/30 10:51:18;;;;;;;3.38;2.58;;;;;;;24.74;28.32;102169.28;4910246;29;20052;-85
2023/04/30 10:53:44;;;;;;;4.82;3.08;;;;;;;24.75;28.22;102168.19;4890878;29;20473;-85
2023/04/30 10:56:12;;;;;;;5.15;2.97;;;;;;;25.14;26.90;102165.22;4908097;29;20054;-86
2023/04/30 10:58:38;;;;;;;4.10;2.60;;;;;;;25.07;27.62;102156.34;4906996;29;20036;-85
2023/04/30 11:01:14;;;;;;;5.47;3.22;;;;;;;22.79;30.55;102158.91;4896956;29;20059;-85
2023/04/30 11:03:41;;;;;;;5.43;3.03;;;;;;;23.80;29.81;102159.09;4888190;29;20067;-78
2023/04/30 11:06:14;;;;;;;3.17;2.50;;;;;;;24.00;28.56;102157.72;4877064;29;20401;-79
2023/04/30 11:08:43;;;;;;;2.92;2.10;;;;;;;23.42;29.82;102147.03;4902918;29;20060;-78
2023/04/30 11:11:08;;;;;;;4.50;2.78;;;;;;;23.79;29.53;102137.38;4896296;29;20592;-78
2023/04/30 11:13:44;;;;;;;2.97;2.10;;;;;;;25.26;28.04;102148.50;4905076;29;20041;-78
2023/04/30 11:16:09;;;;;;;3.50;2.25;;;;;;;24.94;27.80;102149.38;4882023;29;20087;-78
2023/04/30 11:18:44;;;;;;;4.00;2.58;;;;;;;25.19;27.34;102137.72;4888745;29;20040;-79
2023/04/30 11:21:10;;;;;;;2.75;2.55;;;;;;;25.28;27.62;102136.09;4905902;29;20072;-78
2023/04/30 11:23:36;;;;;;;4.07;2.38;;;;;;;25.32;27.22;102144.69;4903505;29;20090;-79
2023/04/30 11:26:02;;;;;;;2.67;2.25;;;;;;;25.00;27.69;102133.72;4904604;29;20079;-78